createdAt,value
2022-09-04T00:01:59.530Z,4.70
2022-09-04T00:04:55.531Z,4.97
2022-09-04T00:07:54.312Z,3.80
2022-09-04T00:10:48.760Z,4.35
2022-09-04T00:13:44.065Z,4.18
2022-09-04T00:16:37.181Z,3.45
2022-09-04T00:19:29.665Z,3.72
2022-09-04T00:22:28.047Z,2.95
2022-09-04T00:25:21.482Z,3.08
2022-09-04T00:28:26.930Z,3.38
2022-09-04T00:31:25.858Z,3.28
2022-09-04T00:34:23.447Z,3.33
2022-09-04T00:37:13.896Z,3.17
2022-09-04T00:40:05.600Z,3.28
2022-09-04T00:43:20.265Z,2.78
2022-09-04T00:46:25.338Z,2.50
2022-09-04T00:49:30.089Z,2.60
2022-09-04T00:52:36.777Z,2.60
2022-09-04T00:55:40.466Z,2.95
2022-09-04T00:58:35.815Z,2.88
2022-09-04T01:01:27.938Z,2.17
2022-09-04T01:04:25.267Z,2.40
2022-09-04T01:07:26.779Z,2.50
2022-09-04T01:10:29.722Z,2.47
2022-09-04T01:13:25.431Z,2.53
2022-09-04T01:16:19.107Z,2.08
2022-09-04T01:19:22.741Z,2.03
2022-09-04T01:22:25.675Z,1.90
2022-09-04T01:25:23.209Z,2.20
2022-09-04T01:28:18.656Z,2.50
2022-09-04T01:31:18.448Z,2.03
2022-09-04T01:34:19.242Z,1.65
2022-09-04T01:37:18.423Z,2.10
2022-09-04T01:40:35.623Z,2.22
2022-09-04T01:43:26.429Z,2.40
2022-09-04T01:46:25.998Z,2.58
2022-09-04T01:49:21.807Z,2.58
2022-09-04T01:52:27.940Z,2.25
2022-09-04T01:55:21.575Z,1.83
2022-09-04T01:58:18.369Z,2.33
2022-09-04T02:01:15.797Z,2.30
2022-09-04T02:04:18.290Z,1.95
2022-09-04T02:07:15.396Z,1.98
2022-09-04T02:10:12.861Z,1.65
2022-09-04T02:13:12.268Z,2.00
2022-09-04T02:16:11.326Z,1.95
2022-09-04T02:19:04.991Z,1.77
2022-09-04T02:22:01.031Z,1.70
2022-09-04T02:24:53.158Z,2.03
2022-09-04T02:27:50.506Z,1.92
2022-09-04T02:30:43.699Z,1.80
2022-09-04T02:33:40.329Z,2.28
2022-09-04T02:36:33.846Z,2.20
2022-09-04T02:39:31.138Z,1.95
2022-09-04T02:42:25.730Z,2.47
2022-09-04T02:45:22.685Z,1.98
2022-09-04T02:48:16.098Z,2.15
2022-09-04T02:51:21.127Z,2.22
2022-09-04T02:54:14.157Z,2.42
2022-09-04T02:57:09.253Z,1.58
2022-09-04T03:00:07.095Z,2.15
2022-09-04T03:03:02.469Z,1.60
2022-09-04T03:05:55.239Z,1.77
2022-09-04T03:08:49.911Z,1.90
2022-09-04T03:11:46.858Z,1.88
2022-09-04T03:14:39.911Z,2.08
2022-09-04T03:17:34.870Z,2.08
2022-09-04T03:20:25.336Z,1.83
2022-09-04T03:23:19.103Z,2.00
2022-09-04T03:26:18.045Z,2.30
2022-09-04T03:29:12.078Z,2.30
2022-09-04T03:32:15.964Z,1.70
2022-09-04T03:35:09.381Z,1.80
2022-09-04T03:38:10.559Z,1.77
2022-09-04T03:41:04.366Z,1.75
2022-09-04T03:44:01.927Z,1.75
2022-09-04T03:46:58.885Z,1.50
2022-09-04T03:49:55.218Z,1.58
2022-09-04T03:52:50.109Z,2.08
2022-09-04T03:56:16.331Z,1.85
2022-09-04T03:59:08.318Z,2.20
2022-09-04T04:02:02.503Z,2.15
2022-09-04T04:05:15.477Z,1.80
2022-09-04T04:08:20.220Z,1.83
2022-09-04T04:11:24.240Z,2.22
2022-09-04T04:14:30.907Z,2.08
2022-09-04T04:17:31.457Z,1.67
2022-09-04T04:20:27.581Z,1.80
2022-09-04T04:23:39.562Z,1.90
2022-09-04T04:26:40.541Z,2.35
2022-09-04T04:29:51.553Z,2.10
2022-09-04T04:33:13.976Z,2.53
2022-09-04T04:36:10.133Z,2.38
2022-09-04T04:39:15.813Z,2.65
2022-09-04T04:42:12.983Z,1.98
2022-09-04T04:45:40.863Z,1.70
2022-09-04T04:49:08.051Z,2.00
2022-09-04T04:52:25.676Z,1.83
2022-09-04T04:55:21.387Z,2.38
2022-09-04T04:58:26.115Z,2.13
2022-09-04T05:01:25.596Z,2.20
2022-09-04T05:04:23.234Z,2.17
2022-09-04T05:07:20.483Z,2.05
2022-09-04T05:10:17.835Z,2.60
2022-09-04T05:13:13.467Z,2.25
2022-09-04T05:16:09.265Z,2.10
2022-09-04T05:19:03.085Z,2.15
2022-09-04T05:21:55.397Z,2.15
2022-09-04T05:24:51.906Z,2.45
2022-09-04T05:27:50.449Z,2.60
2022-09-04T05:30:45.535Z,2.25
2022-09-04T05:33:40.263Z,2.15
2022-09-04T05:36:36.632Z,2.65
2022-09-04T05:39:30.673Z,2.22
2022-09-04T05:42:40.667Z,2.47
2022-09-04T05:45:39.027Z,2.25
2022-09-04T05:48:31.772Z,2.47
2022-09-04T05:51:46.999Z,2.92
2022-09-04T05:54:48.329Z,1.80
2022-09-04T05:57:46.216Z,2.50
2022-09-04T06:00:42.552Z,2.55
2022-09-04T06:03:48.785Z,2.20
2022-09-04T06:06:41.941Z,2.42
2022-09-04T06:09:41.701Z,2.03
2022-09-04T06:12:48.428Z,2.25
2022-09-04T06:15:46.712Z,2.30
2022-09-04T06:18:51.145Z,2.28
2022-09-04T06:22:15.801Z,2.40
2022-09-04T06:25:22.394Z,1.90
2022-09-04T06:28:25.453Z,2.30
2022-09-04T06:31:34.030Z,2.33
2022-09-04T06:34:33.582Z,1.88
2022-09-04T06:37:31.593Z,1.75
2022-09-04T06:40:31.909Z,2.30
2022-09-04T06:43:29.695Z,2.33
2022-09-04T06:46:26.857Z,2.05
2022-09-04T06:49:19.137Z,2.50
2022-09-04T06:52:16.193Z,2.38
2022-09-04T06:55:11.747Z,2.05
2022-09-04T06:58:15.674Z,2.10
2022-09-04T07:01:08.886Z,2.20
2022-09-04T07:04:07.968Z,2.00
2022-09-04T07:07:06.930Z,2.33
2022-09-04T07:10:01.485Z,2.25
2022-09-04T07:13:36.962Z,2.15
2022-09-04T07:16:41.212Z,2.10
2022-09-04T07:19:44.194Z,2.42
2022-09-04T07:22:47.955Z,1.88
2022-09-04T07:25:42.655Z,2.00
2022-09-04T07:28:40.324Z,2.25
2022-09-04T07:31:33.148Z,1.90
2022-09-04T07:34:25.829Z,1.88
2022-09-04T07:37:25.034Z,2.10
2022-09-04T07:40:16.829Z,2.10
2022-09-04T07:43:09.963Z,1.80
2022-09-04T07:46:05.384Z,2.05
2022-09-04T07:48:56.930Z,1.80
2022-09-04T07:51:49.993Z,1.63
2022-09-04T07:54:53.378Z,2.17
2022-09-04T07:58:24.500Z,2.13
2022-09-04T08:01:38.192Z,1.83
2022-09-04T08:04:56.613Z,2.03
2022-09-04T08:08:07.204Z,1.65
2022-09-04T08:11:09.062Z,2.10
2022-09-04T08:14:22.201Z,1.85
2022-09-04T08:17:37.180Z,1.88
2022-09-04T08:20:38.557Z,2.03
2022-09-04T08:23:46.294Z,2.47
2022-09-04T08:26:40.403Z,1.88
2022-09-04T08:29:40.608Z,1.77
2022-09-04T08:32:51.931Z,2.28
2022-09-04T08:35:51.802Z,1.95
2022-09-04T08:38:57.156Z,1.65
2022-09-04T08:42:17.542Z,1.85
2022-09-04T08:45:30.321Z,2.20
2022-09-04T08:48:59.239Z,2.22
2022-09-04T08:52:24.018Z,1.88
2022-09-04T08:55:57.366Z,2.00
2022-09-04T08:59:12.264Z,1.48
2022-09-04T09:02:27.314Z,2.17
2022-09-04T09:05:30.547Z,1.80
2022-09-04T09:09:01.672Z,2.05
2022-09-04T09:12:24.017Z,2.03
2022-09-04T09:15:42.193Z,1.60
2022-09-04T09:18:40.485Z,2.15
2022-09-04T09:21:44.252Z,1.85
2022-09-04T09:24:55.014Z,1.90
2022-09-04T09:28:26.622Z,2.10
2022-09-04T09:31:49.434Z,2.00
2022-09-04T09:35:23.123Z,1.85
2022-09-04T09:38:34.837Z,1.70
2022-09-04T09:41:59.551Z,1.92
2022-09-04T09:45:24.267Z,1.38
2022-09-04T09:48:36.638Z,1.63
2022-09-04T09:52:02.629Z,1.40
2022-09-04T09:55:20.024Z,1.77
2022-09-04T09:58:47.425Z,1.48
2022-09-04T10:01:50.657Z,1.35
2022-09-04T10:05:12.586Z,1.58
2022-09-04T10:08:35.572Z,1.60
2022-09-04T10:11:45.892Z,1.42
2022-09-04T10:15:16.567Z,1.77
2022-09-04T10:18:32.928Z,2.00
2022-09-04T10:21:57.165Z,1.83
2022-09-04T10:25:31.103Z,1.33
2022-09-04T10:28:45.323Z,1.38
2022-09-04T10:31:48.239Z,1.40
2022-09-04T10:34:54.386Z,1.92
2022-09-04T10:37:58.291Z,1.30
2022-09-04T10:40:56.664Z,1.35
2022-09-04T10:44:08.739Z,1.27
2022-09-04T10:47:04.532Z,1.05
2022-09-04T10:50:18.790Z,1.23
2022-09-04T10:53:21.178Z,1.20
2022-09-04T10:56:19.671Z,1.23
2022-09-04T10:59:25.081Z,1.35
2022-09-04T11:02:33.455Z,1.42
2022-09-04T11:05:42.261Z,1.45
2022-09-04T11:08:44.802Z,1.80
2022-09-04T11:11:56.718Z,1.30
2022-09-04T11:14:58.572Z,1.60
2022-09-04T11:18:13.258Z,1.30
2022-09-04T11:21:22.796Z,1.30
2022-09-04T11:24:35.268Z,1.20
2022-09-04T11:27:39.983Z,1.45
2022-09-04T11:30:39.981Z,1.33
2022-09-04T11:34:19.115Z,1.65
2022-09-04T11:37:49.205Z,1.50
2022-09-04T11:41:16.852Z,1.42
2022-09-04T11:44:46.722Z,1.67
2022-09-04T11:48:02.552Z,1.70
2022-09-04T11:51:05.610Z,1.70
2022-09-04T11:54:24.572Z,1.63
2022-09-04T11:57:18.365Z,1.70
2022-09-04T12:00:11.476Z,1.75
2022-09-04T12:03:27.278Z,1.77
2022-09-04T12:06:29.328Z,1.25
2022-09-04T12:09:47.818Z,1.58
2022-09-04T12:13:07.627Z,1.77
2022-09-04T12:16:47.237Z,1.73
2022-09-04T12:19:50.634Z,1.65
2022-09-04T12:23:10.104Z,1.73
2022-09-04T12:26:23.112Z,1.55
2022-09-04T12:29:51.516Z,1.70
2022-09-04T12:33:12.177Z,1.45
2022-09-04T12:36:38.854Z,1.52
2022-09-04T12:39:54.116Z,1.85
2022-09-04T12:42:47.626Z,2.00
2022-09-04T12:45:42.065Z,1.67
2022-09-04T12:48:37.562Z,1.63
2022-09-04T12:51:26.577Z,1.70
2022-09-04T12:54:23.195Z,1.88
2022-09-04T12:57:22.507Z,1.30
2022-09-04T13:00:12.420Z,1.92
2022-09-04T13:03:10.459Z,1.65
2022-09-04T13:06:17.842Z,1.50
2022-09-04T13:09:16.440Z,1.60
2022-09-04T13:12:17.834Z,1.98
2022-09-04T13:15:21.848Z,1.50
2022-09-04T13:18:21.293Z,1.55
2022-09-04T13:21:16.505Z,2.05
2022-09-04T13:24:17.250Z,1.45
2022-09-04T13:27:17.419Z,1.85
2022-09-04T13:30:08.501Z,1.60
2022-09-04T13:33:18.534Z,1.25
2022-09-04T13:36:19.238Z,1.90
2022-09-04T13:39:27.877Z,1.83
2022-09-04T13:42:39.619Z,1.35
2022-09-04T13:45:34.473Z,1.67
2022-09-04T13:48:34.561Z,1.25
2022-09-04T13:51:29.784Z,1.83
2022-09-04T13:54:19.982Z,1.45
2022-09-04T13:57:12.145Z,1.30
2022-09-04T14:00:04.252Z,1.50
2022-09-04T14:02:55.924Z,1.73
2022-09-04T14:05:44.540Z,1.42
2022-09-04T14:08:34.728Z,1.25
2022-09-04T14:11:42.473Z,1.40
2022-09-04T14:14:50.237Z,1.38
2022-09-04T14:17:49.525Z,1.38
2022-09-04T14:20:41.432Z,1.15
2022-09-04T14:23:40.692Z,1.48
2022-09-04T14:26:36.265Z,1.20
2022-09-04T14:29:32.478Z,1.20
2022-09-04T14:32:24.512Z,1.20
2022-09-04T14:35:20.967Z,1.02
2022-09-04T14:38:36.388Z,1.23
2022-09-04T14:41:36.135Z,1.48
2022-09-04T14:44:35.730Z,1.33
2022-09-04T14:47:32.888Z,1.27
2022-09-04T14:50:28.494Z,1.40
2022-09-04T14:53:23.192Z,1.38
2022-09-04T14:56:25.223Z,1.17
2022-09-04T14:59:19.756Z,1.40
2022-09-04T15:02:25.545Z,1.27
2022-09-04T15:05:23.064Z,1.48
2022-09-04T15:08:13.029Z,1.17
2022-09-04T15:11:04.264Z,1.50
2022-09-04T15:13:53.852Z,1.58
2022-09-04T15:16:49.308Z,1.33
2022-09-04T15:19:47.465Z,1.15
2022-09-04T15:22:41.876Z,1.35
2022-09-04T15:25:58.314Z,1.42
2022-09-04T15:28:50.293Z,1.38
2022-09-04T15:31:45.523Z,1.02
2022-09-04T15:34:34.714Z,1.40
2022-09-04T15:37:28.257Z,1.58
2022-09-04T15:40:24.774Z,1.83
2022-09-04T15:43:19.097Z,1.65
2022-09-04T15:46:10.834Z,1.35
2022-09-04T15:49:12.799Z,1.60
2022-09-04T15:52:14.130Z,1.80
2022-09-04T15:55:11.876Z,1.40
2022-09-04T15:58:05.717Z,1.35
2022-09-04T16:01:09.716Z,1.65
2022-09-04T16:04:07.327Z,1.55
2022-09-04T16:06:59.097Z,1.42
2022-09-04T16:09:53.101Z,1.55
2022-09-04T16:12:50.804Z,1.45
2022-09-04T16:15:42.672Z,1.70
2022-09-04T16:18:44.809Z,1.30
2022-09-04T16:21:41.285Z,1.60
2022-09-04T16:24:32.041Z,1.25
2022-09-04T16:27:24.365Z,1.50
2022-09-04T16:30:27.288Z,1.60
2022-09-04T16:33:28.203Z,1.27
2022-09-04T16:36:20.286Z,1.77
2022-09-04T16:39:14.269Z,1.52
2022-09-04T16:42:13.797Z,1.67
2022-09-04T16:45:08.472Z,1.70
2022-09-04T16:48:00.433Z,1.50
2022-09-04T16:51:09.881Z,1.73
2022-09-04T16:54:19.158Z,1.63
2022-09-04T16:57:13.994Z,1.67
2022-09-04T17:00:08.571Z,1.23
2022-09-04T17:03:00.350Z,1.85
2022-09-04T17:05:51.379Z,1.75
2022-09-04T17:08:43.785Z,1.42
2022-09-04T17:11:39.775Z,1.40
2022-09-04T17:14:32.890Z,1.60
2022-09-04T17:17:31.457Z,1.30
2022-09-04T17:20:29.211Z,1.90
2022-09-04T17:28:59.007Z,1.60
2022-09-04T17:29:11.749Z,1.60
2022-09-04T17:30:03.622Z,1.55
2022-09-04T17:38:26.924Z,1.50
2022-09-04T17:40:46.674Z,1.55
2022-09-04T17:40:55.713Z,1.70
2022-09-04T17:42:37.290Z,1.42
2022-09-04T17:45:34.524Z,1.90
2022-09-04T17:48:25.300Z,1.80
2022-09-04T17:51:18.558Z,1.83
2022-09-04T17:54:13.435Z,1.58
2022-09-04T17:57:04.666Z,1.92
2022-09-04T18:00:02.479Z,1.88
2022-09-04T18:02:56.490Z,2.10
2022-09-04T18:05:53.170Z,1.92
2022-09-04T18:08:51.413Z,2.00
2022-09-04T18:12:00.622Z,1.60
2022-09-04T18:15:16.492Z,1.88
2022-09-04T18:18:21.360Z,1.60
2022-09-04T18:21:18.443Z,1.63
2022-09-04T18:24:09.054Z,1.80
2022-09-04T18:27:02.838Z,1.65
2022-09-04T18:36:33.669Z,2.35
2022-09-04T18:37:25.135Z,2.28
2022-09-04T18:37:26.391Z,2.00
2022-09-04T18:39:44.611Z,1.50
2022-09-04T18:50:22.853Z,1.70
2022-09-04T18:50:38.513Z,2.10
2022-09-04T18:50:45.515Z,1.95
2022-09-04T18:52:16.367Z,1.60
2022-09-04T18:55:14.367Z,2.05
2022-09-04T18:58:28.271Z,1.88
2022-09-04T19:01:27.417Z,2.28
2022-09-04T19:04:47.655Z,1.77
2022-09-04T19:07:39.590Z,2.42
2022-09-04T19:10:29.827Z,2.03
2022-09-04T19:13:25.215Z,1.98
2022-09-04T19:16:18.641Z,1.77
2022-09-04T19:19:17.227Z,2.08
2022-09-04T19:22:12.352Z,2.13
2022-09-04T19:25:04.866Z,2.00
2022-09-04T19:27:56.966Z,2.47
2022-09-04T19:30:52.101Z,2.08
2022-09-04T19:33:44.920Z,2.17
2022-09-04T19:36:40.301Z,2.65
2022-09-04T19:45:55.414Z,2.35
2022-09-04T19:46:06.480Z,2.15
2022-09-04T19:46:25.997Z,3.58
2022-09-04T19:51:54.101Z,2.55
2022-09-04T19:53:35.615Z,2.67
2022-09-04T19:55:45.175Z,3.63
2022-09-04T19:58:44.000Z,2.60
2022-09-04T20:01:42.555Z,2.70
2022-09-04T20:04:37.224Z,2.28
2022-09-04T20:07:41.483Z,2.38
2022-09-04T20:10:37.300Z,2.25
2022-09-04T20:13:28.023Z,2.50
2022-09-04T20:16:21.690Z,2.40
2022-09-04T20:19:27.959Z,3.05
2022-09-04T20:22:33.923Z,2.72
2022-09-04T20:25:41.411Z,2.47
2022-09-04T20:28:37.787Z,2.47
2022-09-04T20:31:54.478Z,2.80
2022-09-04T20:34:49.496Z,2.50
2022-09-04T20:37:46.114Z,2.58
2022-09-04T20:40:38.797Z,2.65
2022-09-04T20:43:32.858Z,2.70
2022-09-04T20:52:43.257Z,2.88
2022-09-04T20:52:55.064Z,2.47
2022-09-04T20:53:10.574Z,2.78
2022-09-04T20:56:10.733Z,2.78
2022-09-04T21:03:09.574Z,3.50
2022-09-04T21:03:18.530Z,2.83
2022-09-04T21:06:07.631Z,2.35
2022-09-04T21:09:06.357Z,2.60
2022-09-04T21:11:56.873Z,2.88
2022-09-04T21:14:47.927Z,2.83
2022-09-04T21:18:12.131Z,2.75
2022-09-04T21:21:22.210Z,3.08
2022-09-04T21:24:33.761Z,2.50
2022-09-04T21:27:55.525Z,2.38
2022-09-04T21:31:08.910Z,2.90
2022-09-04T21:34:12.445Z,2.75
2022-09-04T21:37:06.817Z,2.40
2022-09-04T21:40:30.978Z,3.00
2022-09-04T21:43:58.030Z,2.70
2022-09-04T21:46:57.992Z,2.47
2022-09-04T21:50:25.326Z,2.70
2022-09-04T21:53:41.021Z,2.38
2022-09-04T22:02:26.785Z,2.65
2022-09-04T22:02:47.934Z,2.58
2022-09-04T22:03:35.916Z,2.78
2022-09-04T22:07:15.095Z,2.75
2022-09-04T22:13:30.627Z,2.80
2022-09-04T22:13:34.731Z,2.10
2022-09-04T22:16:58.300Z,2.85
2022-09-04T22:20:03.931Z,2.67
2022-09-04T22:23:20.113Z,2.60
2022-09-04T22:26:28.932Z,2.78
2022-09-04T22:29:39.894Z,2.40
2022-09-04T22:32:58.568Z,2.28
2022-09-04T22:36:04.150Z,2.20
2022-09-04T22:39:20.968Z,2.60
2022-09-04T22:42:50.818Z,2.72
2022-09-04T22:46:09.362Z,2.13
2022-09-04T22:49:25.631Z,2.58
2022-09-04T22:52:53.878Z,2.60
2022-09-04T22:56:23.117Z,2.92
2022-09-04T22:59:26.854Z,2.80
2022-09-04T23:07:54.765Z,2.60
2022-09-04T23:13:44.859Z,2.45
2022-09-04T23:14:05.141Z,2.55
2022-09-04T23:17:11.642Z,2.40
2022-09-04T23:24:37.785Z,2.75
2022-09-04T23:26:58.403Z,3.10
2022-09-04T23:27:36.556Z,2.45
2022-09-04T23:30:27.684Z,2.38
2022-09-04T23:33:44.312Z,2.33
2022-09-04T23:37:04.203Z,2.80
2022-09-04T23:40:28.739Z,2.60
2022-09-04T23:43:52.848Z,2.50
2022-09-04T23:46:56.492Z,2.60
2022-09-04T23:50:00.875Z,2.63
2022-09-04T23:53:00.036Z,2.50
2022-09-04T23:55:58.578Z,2.40
2022-09-04T23:59:18.964Z,3.38
